createdAt,value
2018-01-20T00:00:28.532Z,55.00
2018-01-20T00:02:54.279Z,49.40
2018-01-20T00:05:20.300Z,46.87
2018-01-20T00:07:46.176Z,45.38
2018-01-20T00:10:20.218Z,40.73
2018-01-20T00:12:45.962Z,41.65
2018-01-20T00:15:11.957Z,40.73
2018-01-20T00:17:37.716Z,40.65
2018-01-20T00:20:03.885Z,34.33
2018-01-20T00:22:29.666Z,49.63
2018-01-20T00:25:01.415Z,33.90
2018-01-20T00:27:27.324Z,42.38
2018-01-20T00:29:53.073Z,45.47
2018-01-20T00:32:18.830Z,42.93
2018-01-20T00:34:44.587Z,40.57
2018-01-20T00:37:10.386Z,41.93
2018-01-20T00:39:36.144Z,44.27
2018-01-20T00:42:01.922Z,50.03
2018-01-20T00:44:27.678Z,52.00
2018-01-20T00:46:53.434Z,39.83
2018-01-20T00:49:19.215Z,41.90
2018-01-20T00:51:44.974Z,43.40
2018-01-20T00:54:10.718Z,52.17
2018-01-20T00:56:36.483Z,50.03
2018-01-20T00:59:02.346Z,55.37
2018-01-20T01:01:28.382Z,66.73
2018-01-20T01:03:54.130Z,55.47
2018-01-20T01:06:19.956Z,44.00
2018-01-20T01:08:45.660Z,46.53
2018-01-20T01:11:11.495Z,48.60
2018-01-20T01:13:37.548Z,42.37
2018-01-20T01:16:03.330Z,53.20
2018-01-20T01:18:29.079Z,49.77
2018-01-20T01:20:54.844Z,47.80
2018-01-20T01:23:20.582Z,52.30
2018-01-20T01:25:46.378Z,42.77
2018-01-20T01:28:12.128Z,59.53
2018-01-20T01:30:37.891Z,49.10
2018-01-20T01:33:03.625Z,58.03
2018-01-20T01:35:29.527Z,43.10
2018-01-20T01:37:55.286Z,48.23
2018-01-20T01:40:21.054Z,58.20
2018-01-20T01:42:46.802Z,57.73
2018-01-20T01:45:12.565Z,48.23
2018-01-20T01:47:38.326Z,44.07
2018-01-20T01:50:04.094Z,43.87
2018-01-20T01:52:30.114Z,61.83
2018-01-20T01:54:55.863Z,44.72
2018-01-20T01:57:21.693Z,50.37
2018-01-20T01:59:47.507Z,51.90
2018-01-20T02:02:13.275Z,51.53
2018-01-20T02:04:39.267Z,53.83
2018-01-20T02:07:05.154Z,50.75
2018-01-20T02:09:30.898Z,46.03
2018-01-20T02:11:56.660Z,47.77
2018-01-20T02:14:22.403Z,51.47
2018-01-20T02:16:48.159Z,50.33
2018-01-20T02:19:13.930Z,61.97
2018-01-20T02:21:39.694Z,42.53
2018-01-20T02:24:05.443Z,49.73
2018-01-20T02:26:31.627Z,47.50
2018-01-20T02:28:57.389Z,51.08
2018-01-20T02:31:23.131Z,54.67
2018-01-20T02:33:48.886Z,51.43
2018-01-20T02:36:14.655Z,57.43
2018-01-20T02:38:40.425Z,52.10
2018-01-20T02:41:06.171Z,48.30
2018-01-20T02:43:31.932Z,45.37
2018-01-20T02:45:57.691Z,48.73
2018-01-20T02:48:23.459Z,47.60
2018-01-20T02:50:49.203Z,56.50
2018-01-20T02:53:14.973Z,43.17
2018-01-20T02:55:40.732Z,48.00
2018-01-20T02:58:06.504Z,51.37
2018-01-20T03:00:32.264Z,46.63
2018-01-20T03:02:58.031Z,45.77
2018-01-20T03:05:23.802Z,54.17
2018-01-20T03:07:49.570Z,39.63
2018-01-20T03:10:15.326Z,33.07
2018-01-20T03:12:41.087Z,36.60
2018-01-20T03:15:06.855Z,37.50
2018-01-20T03:17:32.599Z,37.60
2018-01-20T03:19:58.358Z,35.00
2018-01-20T03:22:24.120Z,38.27
2018-01-20T03:24:49.874Z,40.67
2018-01-20T03:27:15.602Z,33.93
2018-01-20T03:29:41.355Z,34.57
2018-01-20T03:32:07.087Z,39.17
2018-01-20T03:34:32.846Z,33.30
2018-01-20T03:36:58.585Z,42.07
2018-01-20T03:39:24.342Z,38.80
2018-01-20T03:41:50.089Z,44.13
2018-01-20T03:44:15.839Z,47.50
2018-01-20T03:46:41.582Z,44.40
2018-01-20T03:49:07.322Z,41.47
2018-01-20T03:51:33.078Z,51.00
2018-01-20T03:53:58.838Z,44.63
2018-01-20T03:56:24.599Z,45.97
2018-01-20T03:58:50.355Z,47.87
2018-01-20T04:01:16.126Z,53.53
2018-01-20T04:03:41.858Z,51.93
2018-01-20T04:06:07.597Z,50.70
2018-01-20T04:08:33.337Z,63.90
2018-01-20T04:10:59.088Z,52.53
2018-01-20T04:13:24.819Z,57.20
2018-01-20T04:15:50.569Z,62.77
2018-01-20T04:18:16.312Z,62.83
2018-01-20T04:20:42.054Z,55.37
2018-01-20T04:23:07.868Z,48.93
2018-01-20T04:25:33.603Z,54.13
2018-01-20T04:27:59.343Z,58.47
2018-01-20T04:30:25.079Z,65.00
2018-01-20T04:32:50.836Z,73.73
2018-01-20T04:35:16.578Z,61.70
2018-01-20T04:37:42.325Z,65.67
2018-01-20T04:40:08.066Z,55.60
2018-01-20T04:42:33.814Z,62.27
2018-01-20T04:44:59.558Z,69.20
2018-01-20T04:47:25.310Z,69.07
2018-01-20T04:49:51.059Z,67.00
2018-01-20T04:52:16.820Z,66.73
2018-01-20T04:54:42.567Z,59.70
2018-01-20T04:57:08.323Z,60.13
2018-01-20T04:59:34.070Z,59.57
2018-01-20T05:01:59.820Z,67.87
2018-01-20T05:04:25.560Z,58.07
2018-01-20T05:06:51.315Z,63.60
2018-01-20T05:09:17.043Z,62.30
2018-01-20T05:11:42.793Z,71.73
2018-01-20T05:14:08.542Z,68.37
2018-01-20T05:16:34.302Z,71.93
2018-01-20T05:19:00.042Z,87.67
2018-01-20T05:21:25.774Z,68.30
2018-01-20T05:23:51.536Z,69.93
2018-01-20T05:26:17.276Z,69.57
2018-01-20T05:28:43.027Z,77.67
2018-01-20T05:31:08.814Z,91.57
2018-01-20T05:33:34.530Z,85.37
2018-01-20T05:36:00.258Z,97.27
2018-01-20T05:40:58.519Z,82.30
2018-01-20T05:43:24.263Z,93.43
2018-01-20T05:45:50.003Z,80.40
2018-01-20T05:48:15.753Z,79.07
2018-01-20T05:50:41.514Z,72.87
2018-01-20T05:53:07.269Z,85.50
2018-01-20T05:55:33.005Z,69.27
2018-01-20T05:57:58.735Z,70.50
2018-01-20T06:00:24.498Z,67.23
2018-01-20T06:02:50.235Z,67.00
2018-01-20T06:05:15.983Z,57.27
2018-01-20T06:07:41.730Z,56.13
2018-01-20T06:10:07.479Z,57.20
2018-01-20T06:12:33.217Z,52.70
2018-01-20T06:14:58.950Z,52.87
2018-01-20T06:17:24.678Z,47.50
2018-01-20T06:19:50.417Z,50.23
2018-01-20T06:22:16.190Z,49.80
2018-01-20T06:24:41.951Z,51.07
2018-01-20T06:27:07.697Z,51.67
2018-01-20T06:29:33.446Z,68.40
2018-01-20T06:31:59.180Z,64.10
2018-01-20T06:34:24.930Z,49.33
2018-01-20T06:36:50.669Z,44.63
2018-01-20T06:39:16.394Z,59.87
2018-01-20T06:41:42.134Z,49.87
2018-01-20T06:44:07.862Z,50.73
2018-01-20T06:46:33.602Z,61.53
2018-01-20T06:48:59.347Z,54.43
2018-01-20T06:51:25.089Z,43.73
2018-01-20T06:53:50.829Z,39.23
2018-01-20T06:56:16.585Z,44.90
2018-01-20T06:58:42.334Z,40.30
2018-01-20T07:01:08.090Z,38.90
2018-01-20T07:03:33.839Z,44.27
2018-01-20T07:05:59.606Z,43.57
2018-01-20T07:08:25.347Z,51.33
2018-01-20T07:10:51.090Z,47.73
2018-01-20T07:13:16.836Z,45.37
2018-01-20T07:15:42.604Z,53.03
2018-01-20T07:18:08.347Z,56.97
2018-01-20T07:20:34.087Z,56.20
2018-01-20T07:22:59.838Z,45.40
2018-01-20T07:25:25.584Z,47.83
2018-01-20T07:27:51.327Z,43.07
2018-01-20T07:30:17.069Z,39.90
2018-01-20T07:32:42.815Z,38.23
2018-01-20T07:35:08.556Z,41.53
2018-01-20T07:37:34.291Z,37.23
2018-01-20T07:40:00.038Z,43.57
2018-01-20T07:42:25.816Z,40.87
2018-01-20T07:44:51.554Z,37.90
2018-01-20T07:47:17.304Z,43.63
2018-01-20T07:49:43.051Z,42.03
2018-01-20T07:52:08.803Z,37.30
2018-01-20T07:54:34.555Z,39.90
2018-01-20T07:57:00.313Z,45.63
2018-01-20T07:59:26.063Z,39.30
2018-01-20T08:01:51.807Z,47.87
2018-01-20T08:04:17.561Z,46.97
2018-01-20T08:06:43.315Z,52.50
2018-01-20T08:09:09.066Z,45.43
2018-01-20T08:11:34.799Z,55.23
2018-01-20T08:14:00.560Z,53.80
2018-01-20T08:16:26.401Z,43.73
2018-01-20T08:18:52.167Z,40.90
2018-01-20T08:21:17.907Z,45.60
2018-01-20T08:23:43.642Z,43.73
2018-01-20T08:26:09.370Z,54.00
2018-01-20T08:28:35.122Z,47.73
2018-01-20T08:31:00.878Z,47.33
2018-01-20T08:33:26.626Z,48.23
2018-01-20T08:35:52.366Z,41.20
2018-01-20T08:38:18.110Z,43.40
2018-01-20T08:40:43.844Z,45.40
2018-01-20T08:43:09.587Z,38.90
2018-01-20T08:45:35.322Z,50.77
2018-01-20T08:48:01.071Z,44.67
2018-01-20T08:50:26.827Z,44.40
2018-01-20T08:52:52.574Z,40.50
2018-01-20T08:55:18.322Z,40.97
2018-01-20T08:57:44.071Z,41.20
2018-01-20T09:00:09.834Z,43.90
2018-01-20T09:02:35.568Z,43.07
2018-01-20T09:05:01.315Z,44.73
2018-01-20T09:07:27.061Z,38.00
2018-01-20T09:09:52.811Z,47.63
2018-01-20T09:12:18.554Z,52.33
2018-01-20T09:14:44.298Z,56.73
2018-01-20T09:17:10.050Z,47.43
2018-01-20T09:19:35.790Z,44.70
2018-01-20T09:22:01.522Z,45.97
2018-01-20T09:24:27.262Z,44.83
2018-01-20T09:26:53.002Z,48.00
2018-01-20T09:29:18.751Z,50.07
2018-01-20T09:31:44.504Z,54.27
2018-01-20T09:34:10.251Z,56.80
2018-01-20T09:36:35.989Z,49.73
2018-01-20T09:39:01.738Z,47.43
2018-01-20T09:41:27.489Z,43.10
2018-01-20T09:43:53.222Z,43.17
2018-01-20T09:46:18.969Z,45.00
2018-01-20T09:48:44.710Z,55.33
2018-01-20T09:51:10.459Z,48.40
2018-01-20T09:53:36.210Z,49.03
2018-01-20T09:56:01.955Z,46.93
2018-01-20T09:58:27.695Z,46.60
2018-01-20T10:00:53.446Z,48.10
2018-01-20T10:03:19.187Z,56.33
2018-01-20T10:05:44.942Z,51.23
2018-01-20T10:08:10.678Z,51.10
2018-01-20T10:10:36.414Z,47.57
2018-01-20T10:13:02.150Z,52.83
2018-01-20T10:15:27.903Z,56.73
2018-01-20T10:17:53.639Z,57.67
2018-01-20T10:20:19.370Z,48.73
2018-01-20T10:22:45.127Z,51.87
2018-01-20T10:25:10.900Z,48.47
2018-01-20T10:27:36.606Z,53.60
2018-01-20T10:30:02.407Z,48.90
2018-01-20T10:32:28.183Z,49.50
2018-01-20T10:34:53.926Z,50.37
2018-01-20T10:37:19.768Z,43.47
2018-01-20T10:39:45.531Z,47.23
2018-01-20T10:42:11.299Z,48.13
2018-01-20T10:44:37.037Z,45.80
2018-01-20T10:47:02.778Z,42.77
2018-01-20T10:49:28.511Z,43.37
2018-01-20T10:51:54.262Z,36.77
2018-01-20T10:54:20.023Z,36.20
2018-01-20T10:56:45.778Z,35.97
2018-01-20T10:59:11.522Z,34.67
2018-01-20T11:01:37.298Z,36.73
2018-01-20T11:04:03.035Z,35.80
2018-01-20T11:06:28.774Z,28.00
2018-01-20T11:08:54.518Z,33.13
2018-01-20T11:11:20.254Z,30.77
2018-01-20T11:13:46.002Z,35.53
2018-01-20T11:16:11.746Z,43.97
2018-01-20T11:18:37.499Z,32.33
2018-01-20T11:21:10.075Z,36.07
2018-01-20T11:23:35.814Z,33.00
2018-01-20T11:26:01.546Z,36.63
2018-01-20T11:28:27.301Z,33.90
2018-01-20T11:30:53.046Z,33.63
2018-01-20T11:33:18.805Z,35.37
2018-01-20T11:35:44.563Z,37.60
2018-01-20T11:38:10.346Z,38.00
2018-01-20T11:40:36.082Z,42.60
2018-01-20T11:43:01.823Z,44.33
2018-01-20T11:45:27.566Z,38.53
2018-01-20T11:47:53.302Z,42.90
2018-01-20T11:50:19.159Z,47.00
2018-01-20T11:52:44.977Z,42.67
2018-01-20T11:55:10.726Z,40.47
2018-01-20T11:57:36.503Z,46.10
2018-01-20T12:00:02.345Z,46.10
2018-01-20T12:02:28.098Z,53.70
2018-01-20T12:04:53.851Z,46.37
2018-01-20T12:07:19.601Z,51.00
2018-01-20T12:09:47.461Z,48.47
2018-01-20T12:12:13.206Z,46.20
2018-01-20T12:14:38.968Z,46.83
2018-01-20T12:17:04.798Z,49.07
2018-01-20T12:19:30.529Z,51.70
2018-01-20T12:21:56.317Z,44.80
2018-01-20T12:24:22.074Z,45.97
2018-01-20T12:26:47.826Z,44.83
2018-01-20T12:29:13.587Z,47.13
2018-01-20T12:31:39.511Z,47.70
2018-01-20T12:34:05.455Z,43.33
2018-01-20T12:36:31.698Z,51.43
2018-01-20T12:38:57.450Z,44.88
2018-01-20T12:41:23.219Z,45.10
2018-01-20T12:43:48.978Z,46.87
2018-01-20T12:46:14.742Z,48.87
2018-01-20T12:48:40.661Z,47.87
2018-01-20T12:51:06.414Z,52.27
2018-01-20T12:53:32.458Z,47.63
2018-01-20T12:55:58.223Z,40.33
2018-01-20T12:58:23.962Z,44.10
2018-01-20T13:00:49.715Z,40.17
2018-01-20T13:03:15.463Z,41.70
2018-01-20T13:05:41.215Z,45.57
2018-01-20T13:08:06.986Z,42.97
2018-01-20T13:10:32.730Z,42.33
2018-01-20T13:12:58.544Z,40.50
2018-01-20T13:15:24.330Z,41.17
2018-01-20T13:17:50.151Z,41.83
2018-01-20T13:20:15.898Z,43.63
2018-01-20T13:22:41.655Z,43.97
2018-01-20T13:25:07.406Z,45.87
2018-01-20T13:27:33.160Z,44.83
2018-01-20T13:29:58.906Z,41.97
2018-01-20T13:32:24.658Z,48.33
2018-01-20T13:34:50.402Z,38.97
2018-01-20T13:37:16.154Z,49.40
2018-01-20T13:39:42.007Z,49.53
2018-01-20T13:42:07.781Z,44.77
2018-01-20T13:44:33.515Z,43.90
2018-01-20T13:46:59.399Z,41.93
2018-01-20T13:49:25.200Z,46.40
2018-01-20T13:51:50.946Z,46.23
2018-01-20T13:54:16.700Z,47.43
2018-01-20T13:56:42.450Z,44.47
2018-01-20T13:59:08.235Z,46.70
2018-01-20T14:01:33.986Z,45.40
2018-01-20T14:03:59.762Z,44.27
2018-01-20T14:06:25.507Z,44.70
2018-01-20T14:08:51.288Z,45.03
2018-01-20T14:11:17.015Z,42.63
2018-01-20T14:13:42.766Z,40.40
2018-01-20T14:16:08.521Z,44.90
2018-01-20T14:18:34.276Z,39.50
2018-01-20T14:21:00.021Z,45.83
2018-01-20T14:23:25.758Z,38.53
2018-01-20T14:25:51.487Z,38.10
2018-01-20T14:28:17.231Z,38.47
2018-01-20T14:30:42.971Z,47.80
2018-01-20T14:33:08.714Z,47.60
2018-01-20T14:35:34.484Z,47.20
2018-01-20T14:38:00.234Z,38.47
2018-01-20T14:40:25.973Z,47.00
2018-01-20T14:42:51.701Z,44.70
2018-01-20T14:45:18.333Z,38.67
2018-01-20T14:47:44.157Z,46.72
2018-01-20T14:50:09.903Z,41.77
2018-01-20T14:52:35.661Z,40.27
2018-01-20T14:55:01.414Z,46.33
2018-01-20T14:57:27.155Z,42.50
2018-01-20T14:59:52.911Z,43.30
2018-01-20T15:02:20.062Z,51.70
2018-01-20T15:04:45.903Z,41.95
2018-01-20T15:07:11.635Z,47.87
2018-01-20T15:09:37.386Z,46.47
2018-01-20T15:12:03.131Z,43.33
2018-01-20T15:14:28.867Z,42.93
2018-01-20T15:16:54.598Z,47.83
2018-01-20T15:19:20.347Z,47.17
2018-01-20T15:21:46.086Z,53.37
2018-01-20T15:24:11.810Z,50.57
2018-01-20T15:26:37.552Z,51.73
2018-01-20T15:29:03.278Z,52.27
2018-01-20T15:31:29.019Z,47.73
2018-01-20T15:33:54.742Z,46.90
2018-01-20T15:36:20.495Z,47.80
2018-01-20T15:38:46.234Z,49.70
2018-01-20T15:41:11.978Z,48.23
2018-01-20T15:43:37.703Z,50.23
2018-01-20T15:46:03.483Z,50.33
2018-01-20T15:48:29.225Z,50.47
2018-01-20T15:50:54.960Z,48.17
2018-01-20T15:53:20.714Z,49.13
2018-01-20T15:55:46.462Z,49.60
2018-01-20T15:58:12.243Z,54.53
2018-01-20T16:00:37.982Z,46.00
2018-01-20T16:03:03.731Z,50.17
2018-01-20T16:05:29.484Z,47.07
2018-01-20T16:07:55.243Z,51.87
2018-01-20T16:10:21.006Z,50.07
2018-01-20T16:12:46.774Z,51.80
2018-01-20T16:15:12.522Z,49.93
2018-01-20T16:17:38.274Z,48.60
2018-01-20T16:20:04.016Z,53.33
2018-01-20T16:22:29.758Z,47.47
2018-01-20T16:24:55.486Z,46.60
2018-01-20T16:27:21.256Z,45.30
2018-01-20T16:29:46.997Z,52.77
2018-01-20T16:32:12.770Z,51.17
2018-01-20T16:34:38.520Z,48.93
2018-01-20T16:37:04.268Z,51.57
2018-01-20T16:39:30.029Z,48.77
2018-01-20T16:41:55.770Z,44.40
2018-01-20T16:44:21.507Z,44.73
2018-01-20T16:46:47.251Z,45.63
2018-01-20T16:49:12.993Z,50.13
2018-01-20T16:51:38.720Z,44.60
2018-01-20T16:54:04.470Z,53.07
2018-01-20T16:56:30.375Z,48.70
2018-01-20T16:58:56.123Z,53.30
2018-01-20T17:01:21.867Z,54.77
2018-01-20T17:03:47.607Z,53.97
2018-01-20T17:06:13.338Z,54.27
2018-01-20T17:08:39.097Z,51.63
2018-01-20T17:11:04.846Z,58.03
2018-01-20T17:13:30.591Z,51.93
2018-01-20T17:15:56.343Z,51.37
2018-01-20T17:18:22.101Z,55.07
2018-01-20T17:20:47.862Z,53.90
2018-01-20T17:23:13.668Z,57.70
2018-01-20T17:25:39.426Z,52.27
2018-01-20T17:28:05.179Z,61.63
2018-01-20T17:30:30.932Z,64.00
2018-01-20T17:32:56.676Z,59.47
2018-01-20T17:35:22.417Z,57.33
2018-01-20T17:37:48.150Z,60.77
2018-01-20T17:40:13.907Z,63.13
2018-01-20T17:42:39.634Z,59.73
2018-01-20T17:45:05.381Z,55.40
2018-01-20T17:47:31.138Z,54.20
2018-01-20T17:49:56.902Z,57.27
2018-01-20T17:52:22.648Z,58.60
2018-01-20T17:54:48.419Z,54.23
2018-01-20T17:57:14.146Z,53.93
2018-01-20T17:59:39.898Z,58.37
2018-01-20T18:02:05.670Z,53.80
2018-01-20T18:04:31.418Z,56.13
2018-01-20T18:06:57.166Z,59.53
2018-01-20T18:09:22.916Z,60.63
2018-01-20T18:11:48.678Z,53.53
2018-01-20T18:14:14.434Z,63.63
2018-01-20T18:16:40.194Z,59.10
2018-01-20T18:19:05.939Z,168.27
2018-01-20T18:21:31.696Z,93.50
2018-01-20T18:23:57.486Z,73.97
2018-01-20T18:26:23.263Z,55.40
2018-01-20T18:28:49.007Z,57.37
2018-01-20T18:31:14.758Z,56.70
2018-01-20T18:33:40.490Z,59.20
2018-01-20T18:36:06.244Z,58.47
2018-01-20T18:38:31.974Z,56.57
2018-01-20T18:40:57.731Z,65.43
2018-01-20T18:43:23.483Z,53.53
2018-01-20T18:45:49.239Z,52.33
2018-01-20T18:48:14.980Z,54.13
2018-01-20T18:50:40.714Z,58.43
2018-01-20T18:53:06.483Z,57.10
2018-01-20T18:55:32.231Z,55.20
2018-01-20T18:57:57.982Z,59.93
2018-01-20T19:00:23.721Z,51.90
2018-01-20T19:02:49.482Z,52.33
2018-01-20T19:05:15.227Z,55.47
2018-01-20T19:07:40.981Z,59.80
2018-01-20T19:10:06.762Z,66.50
2018-01-20T19:12:32.511Z,63.70
2018-01-20T19:14:58.262Z,60.40
2018-01-20T19:17:24.021Z,55.53
2018-01-20T19:19:49.750Z,61.17
2018-01-20T19:22:15.486Z,59.00
2018-01-20T19:24:41.214Z,65.40
2018-01-20T19:27:06.960Z,247.00
2018-01-20T19:29:32.696Z,206.27
2018-01-20T19:31:58.431Z,66.43
2018-01-20T19:34:24.195Z,62.30
2018-01-20T19:36:49.938Z,69.70
2018-01-20T19:39:15.680Z,64.97
2018-01-20T19:41:41.415Z,65.10
2018-01-20T19:44:07.154Z,58.87
2018-01-20T19:46:32.887Z,65.77
2018-01-20T19:48:58.653Z,61.23
2018-01-20T19:51:24.386Z,61.23
2018-01-20T19:53:50.142Z,59.03
2018-01-20T19:56:15.879Z,58.03
2018-01-20T19:58:41.630Z,60.07
2018-01-20T20:01:07.384Z,60.27
2018-01-20T20:03:33.163Z,63.87
2018-01-20T20:05:58.910Z,61.63
2018-01-20T20:08:24.662Z,58.27
2018-01-20T20:10:50.401Z,61.60
2018-01-20T20:13:16.135Z,61.10
2018-01-20T20:15:41.892Z,61.13
2018-01-20T20:18:07.687Z,62.20
2018-01-20T20:20:33.414Z,68.17
2018-01-20T20:22:59.167Z,67.33
2018-01-20T20:25:24.921Z,62.47
2018-01-20T20:27:50.658Z,65.63
2018-01-20T20:30:17.203Z,81.60
2018-01-20T20:32:42.948Z,63.13
2018-01-20T20:35:08.700Z,70.10
2018-01-20T20:37:34.444Z,64.30
2018-01-20T20:40:00.208Z,61.60
2018-01-20T20:42:25.973Z,57.47
2018-01-20T20:44:51.735Z,71.77
2018-01-20T20:47:17.483Z,66.33
2018-01-20T20:49:43.231Z,59.77
2018-01-20T20:52:08.995Z,66.23
2018-01-20T20:54:34.789Z,66.70
2018-01-20T20:57:00.540Z,65.63
2018-01-20T20:59:26.350Z,72.00
2018-01-20T21:01:52.099Z,70.03
2018-01-20T21:04:17.850Z,73.27
2018-01-20T21:06:43.610Z,70.90
2018-01-20T21:09:09.343Z,67.07
2018-01-20T21:11:35.087Z,66.53
2018-01-20T21:14:00.825Z,63.43
2018-01-20T21:16:26.575Z,71.43
2018-01-20T21:18:52.311Z,74.43
2018-01-20T21:21:18.066Z,58.77
2018-01-20T21:23:43.798Z,65.27
2018-01-20T21:26:09.546Z,70.00
2018-01-20T21:28:35.286Z,65.27
2018-01-20T21:31:01.027Z,65.33
2018-01-20T21:33:26.770Z,66.73
2018-01-20T21:35:52.514Z,72.70
2018-01-20T21:38:18.250Z,64.57
2018-01-20T21:40:43.994Z,65.00
2018-01-20T21:43:09.741Z,63.70
2018-01-20T21:45:35.475Z,69.57
2018-01-20T21:48:01.259Z,66.27
2018-01-20T21:50:27.034Z,65.30
2018-01-20T21:52:52.778Z,65.40
2018-01-20T21:55:18.531Z,66.97
2018-01-20T21:57:44.306Z,69.83
2018-01-20T22:00:10.059Z,69.87
2018-01-20T22:02:35.987Z,65.13
2018-01-20T22:05:01.754Z,67.07
2018-01-20T22:07:27.506Z,67.93
2018-01-20T22:09:53.255Z,68.43
2018-01-20T22:12:19.018Z,72.27
2018-01-20T22:14:44.767Z,65.10
2018-01-20T22:17:10.522Z,69.70
2018-01-20T22:19:36.271Z,61.07
2018-01-20T22:22:02.028Z,64.93
2018-01-20T22:24:27.758Z,60.97
2018-01-20T22:26:53.503Z,63.50
2018-01-20T22:29:19.258Z,60.40
2018-01-20T22:31:45.004Z,64.83
2018-01-20T22:34:11.570Z,65.07
2018-01-20T22:36:37.299Z,62.72
2018-01-20T22:39:03.050Z,62.53
2018-01-20T22:41:28.793Z,65.93
2018-01-20T22:46:27.154Z,66.78
2018-01-20T22:48:52.904Z,65.60
2018-01-20T22:51:18.643Z,66.57
2018-01-20T22:53:44.397Z,58.73
2018-01-20T22:56:10.154Z,59.77
2018-01-20T22:58:35.915Z,61.17
2018-01-20T23:01:07.871Z,60.53
2018-01-20T23:03:33.631Z,57.85
2018-01-20T23:05:59.380Z,58.30
2018-01-20T23:08:25.142Z,56.27
2018-01-20T23:10:50.891Z,52.80
2018-01-20T23:13:16.650Z,55.50
2018-01-20T23:15:42.393Z,59.23
2018-01-20T23:18:08.143Z,56.43
2018-01-20T23:20:33.896Z,60.53
2018-01-20T23:22:59.651Z,56.60
2018-01-20T23:25:25.406Z,61.70
2018-01-20T23:27:51.162Z,62.80
2018-01-20T23:30:16.941Z,66.77
2018-01-20T23:32:42.690Z,74.30
2018-01-20T23:35:08.444Z,63.73
2018-01-20T23:37:34.207Z,74.47
2018-01-20T23:39:59.966Z,71.90
2018-01-20T23:42:25.697Z,60.47
2018-01-20T23:44:51.459Z,65.90
2018-01-20T23:47:17.202Z,63.33
2018-01-20T23:49:42.947Z,63.70
2018-01-20T23:52:08.694Z,79.33
2018-01-20T23:54:34.441Z,64.80
2018-01-20T23:57:07.325Z,61.13
2018-01-20T23:59:33.111Z,65.95
